Terminal Aerodrome Forecast
Issued by NWS

Current Version | Previous Version | Text Only | Print | Product List | Glossary Off
Versions: 1 2 3 4 5 6 7 8 9 10 11 12 13 14 15 16 17 18 19

000
FTUS41 KPBZ 191400 AAA
TAFMGW
TAF AMD
KMGW 191440Z 1915/2012 19007KT P6SM SKC
     FM191800 17011G18KT P6SM BKN080 OVC100
     FM200100 18011KT P6SM BKN035 OVC100=

USA.gov is the U.S. government's official web portal to all federal, state and local government web resources and services.